Portada
METAR-TAF:

METAR-TAF

Aeroports :

Phetchabun, Tailàndia

latitud: 16-40-33N, longitud: 101-11-42E, altitud: 137 m

Observació

L'informe es va fer fa 29 minuts, a les 00:00 UTC
Vent calma
Temperatura 22°C
Humitat 78%
Pressió 1016 hPa
Visibilitat: 5000 m
boirina

METAR: VTPB 210000Z 00000KT 5000 BR NSC 22/18 Q1016 NOSIG

Hora: 07:29 (00:29 UTC)

Pronòstic

L'informe es va fer fa 1 hora i 29 minuts, a les 23:00 UTC
Pronòstic vàlid del 21 a les 00 UTC al 21 a les 24 UTC
Vent 5 kt del Sud/Sud-Est
Visibilitat: 3000 m
Escasses núvols a una alçada de 3500 ft
boirina
Evolucionant progressivament
l' 21 a les 03 UTC al 21 a les 05 UTC
Visibilitat: 6000 m

TAF: VTPB 202300Z 2100/2124 15005KT 3000 BR FEW035 BECMG 2103/2105 6000 NSW

Observacions i pronòstics meteorològics de més de 4000 aeroports (METAR i TAF).

Les estacions disponibles són els punts grocs i vermells al mapa.

Posi el ratolí al punt desitjat per veure el nom de l'estació.

Feu clic per veure les observacions i els pronòstics meteorològics.

Per canviar el mapa: feu clic els botons verds amb una creu de color negre per apropar; al botó verd amb un guió per allunyar la imatge; o en les fletxes verdes per a mapes adjacents.


METAR-TAF: